Time;durP1;ratioP1;P1;durP2;ratioP2;P2;SDS_P1;SDS_P2;PMS_P1;PMS_P2;Temp;Humidity;BMP_temperature;BMP_pressure;BME280_temperature;BME280_humidity;BME280_pressure;Samples;Min_cycle;Max_cycle;Signal;HPM_P1;HPM_P2
2023/04/20 00:01:11;;;;;;;2.50;1.97;;;10.10;99.90;;;;;;6279259;28;20477;-63
2023/04/20 00:04:15;;;;;;;1.53;1.43;;;10.10;99.90;;;;;;6276934;28;20482;-64
2023/04/20 00:07:18;;;;;;;1.60;1.23;;;10.00;99.90;;;;;;6276466;28;20477;-64
2023/04/20 00:10:21;;;;;;;1.20;1.10;;;10.00;99.90;;;;;;6277042;28;20813;-64
2023/04/20 00:13:25;;;;;;;2.50;2.03;;;10.00;99.90;;;;;;6276699;28;20772;-64
2023/04/20 00:16:29;;;;;;;1.40;1.30;;;10.00;99.90;;;;;;6277806;28;21131;-64
2023/04/20 00:19:32;;;;;;;1.50;1.40;;;10.00;99.90;;;;;;6262778;28;20557;-63
2023/04/20 00:22:36;;;;;;;2.50;1.63;;;10.00;99.90;;;;;;6252361;28;20471;-63
2023/04/20 00:25:39;;;;;;;2.03;1.40;;;10.00;99.90;;;;;;6257527;28;20482;-63
2023/04/20 00:28:42;;;;;;;1.93;1.20;;;9.90;99.90;;;;;;6260809;28;21056;-63
2023/04/20 00:31:46;;;;;;;1.63;1.40;;;9.90;99.90;;;;;;6251888;28;20490;-63
2023/04/20 00:34:49;;;;;;;1.50;1.33;;;9.80;99.90;;;;;;6251723;28;20982;-63
2023/04/20 00:37:53;;;;;;;1.37;1.27;;;9.90;99.90;;;;;;6251465;28;20482;-63
2023/04/20 00:40:56;;;;;;;2.67;1.13;;;9.90;99.90;;;;;;6251749;28;20513;-63
2023/04/20 00:43:59;;;;;;;1.80;1.33;;;10.00;99.90;;;;;;6261676;28;20537;-64
2023/04/20 00:47:04;;;;;;;1.27;1.17;;;10.00;99.90;;;;;;6263101;28;20466;-65
2023/04/20 00:50:09;;;;;;;1.10;1.00;;;10.00;99.90;;;;;;6261947;28;20478;-64
2023/04/20 00:53:13;;;;;;;1.30;1.20;;;10.00;99.90;;;;;;6265484;28;20478;-64
2023/04/20 00:56:18;;;;;;;1.57;1.47;;;10.00;99.90;;;;;;6262737;28;20849;-64
2023/04/20 00:59:21;;;;;;;1.23;1.13;;;10.00;99.90;;;;;;6263236;28;20474;-65
2023/04/20 01:02:26;;;;;;;1.57;1.47;;;10.00;99.90;;;;;;6253622;28;20968;-64
2023/04/20 01:05:29;;;;;;;1.40;1.30;;;9.90;99.90;;;;;;6251001;28;20479;-64
2023/04/20 01:08:34;;;;;;;1.37;1.30;;;9.80;99.90;;;;;;6251033;28;20481;-64
2023/04/20 01:11:37;;;;;;;1.50;1.40;;;9.90;99.90;;;;;;6262572;28;20965;-65
2023/04/20 01:14:40;;;;;;;1.10;1.10;;;9.90;99.90;;;;;;6275359;28;20808;-64
2023/04/20 01:17:45;;;;;;;1.40;1.30;;;9.80;99.90;;;;;;6275782;28;20481;-64
2023/04/20 01:20:48;;;;;;;1.33;1.23;;;9.80;99.90;;;;;;6275764;28;20474;-64
2023/04/20 01:23:52;;;;;;;1.40;1.30;;;9.80;99.90;;;;;;6275260;28;20836;-64
2023/04/20 01:26:56;;;;;;;1.30;1.20;;;9.80;99.90;;;;;;6275421;28;20985;-64
2023/04/20 01:29:59;;;;;;;1.43;1.33;;;9.80;99.90;;;;;;6274955;28;20485;-64
2023/04/20 01:33:02;;;;;;;1.50;1.40;;;9.80;99.90;;;;;;6274874;28;20477;-64
2023/04/20 01:36:08;;;;;;;1.57;1.47;;;9.80;99.90;;;;;;6274981;28;20788;-64
2023/04/20 01:39:12;;;;;;;1.40;1.30;;;9.70;99.90;;;;;;6275406;28;20474;-64
2023/04/20 01:42:16;;;;;;;1.90;1.20;;;9.70;99.90;;;;;;6274983;28;20478;-62
2023/04/20 01:45:19;;;;;;;1.63;1.53;;;9.70;99.90;;;;;;6275357;28;20474;-62
2023/04/20 01:48:22;;;;;;;3.17;1.43;;;9.60;99.90;;;;;;6274820;28;20470;-63
2023/04/20 01:51:26;;;;;;;2.00;1.47;;;9.60;99.90;;;;;;6274446;28;20481;-63
2023/04/20 01:54:31;;;;;;;1.60;1.50;;;9.50;99.90;;;;;;6273730;28;20478;-63
2023/04/20 01:57:34;;;;;;;2.50;1.93;;;9.50;99.90;;;;;;6274849;28;20478;-63
2023/04/20 02:00:37;;;;;;;1.90;1.80;;;9.50;99.90;;;;;;6274362;28;20461;-63
2023/04/20 02:03:40;;;;;;;1.70;1.60;;;9.40;99.90;;;;;;6274258;28;20464;-63
2023/04/20 02:06:44;;;;;;;1.50;1.40;;;9.40;99.90;;;;;;6274707;28;20442;-62
2023/04/20 02:09:48;;;;;;;1.53;1.43;;;9.40;99.90;;;;;;6274662;28;20449;-62
2023/04/20 02:12:51;;;;;;;2.13;1.40;;;9.40;99.90;;;;;;6274812;28;20525;-63
2023/04/20 02:15:55;;;;;;;1.60;1.50;;;9.30;99.90;;;;;;6274106;28;20473;-63
2023/04/20 02:18:59;;;;;;;1.60;1.50;;;9.40;99.90;;;;;;6274864;28;20469;-63
2023/04/20 02:22:02;;;;;;;1.67;1.47;;;9.40;99.90;;;;;;6274015;28;20478;-63
2023/04/20 02:25:09;;;;;;;1.50;1.40;;;9.40;99.90;;;;;;6274506;28;20473;-62
2023/04/20 02:28:12;;;;;;;1.60;1.50;;;9.50;99.90;;;;;;6274255;28;20466;-63
2023/04/20 02:31:15;;;;;;;1.30;1.20;;;9.50;99.90;;;;;;6274410;28;20470;-63
2023/04/20 02:34:18;;;;;;;1.63;1.53;;;9.50;99.90;;;;;;6274012;28;20478;-63
2023/04/20 02:37:21;;;;;;;1.50;1.40;;;9.50;99.90;;;;;;6274008;28;20476;-63
2023/04/20 02:40:26;;;;;;;1.77;1.67;;;9.50;99.90;;;;;;6273966;28;20462;-62
2023/04/20 02:43:29;;;;;;;2.00;1.90;;;9.50;99.90;;;;;;6273899;28;20858;-63
2023/04/20 02:46:32;;;;;;;1.60;1.50;;;9.50;99.90;;;;;;6274236;28;20798;-63
2023/04/20 02:49:35;;;;;;;2.50;2.30;;;9.50;99.90;;;;;;6274105;28;20462;-64
2023/04/20 02:52:39;;;;;;;1.90;1.80;;;9.50;99.90;;;;;;6273985;28;20484;-63
2023/04/20 02:55:43;;;;;;;1.80;1.70;;;9.60;99.90;;;;;;6273788;28;20462;-63
2023/04/20 02:58:47;;;;;;;1.73;1.63;;;9.50;99.90;;;;;;6274125;28;20512;-63
2023/04/20 03:01:50;;;;;;;1.77;1.67;;;9.60;99.90;;;;;;6273544;28;20489;-63
2023/04/20 03:04:53;;;;;;;1.90;1.70;;;9.50;99.90;;;;;;6275230;28;20477;-63
2023/04/20 03:07:56;;;;;;;1.50;1.40;;;9.60;99.90;;;;;;6273750;28;20968;-63
2023/04/20 03:11:01;;;;;;;1.60;1.50;;;9.60;99.90;;;;;;6279052;28;20474;-63
2023/04/20 03:14:05;;;;;;;1.67;1.57;;;9.60;99.90;;;;;;6278103;28;20490;-63
2023/04/20 03:17:08;;;;;;;4.77;1.53;;;9.50;99.90;;;;;;6279523;28;20469;-63
2023/04/20 03:20:12;;;;;;;2.37;2.17;;;9.50;99.90;;;;;;6280271;28;20469;-63
2023/04/20 03:23:15;;;;;;;2.00;1.80;;;9.50;99.90;;;;;;6278470;28;20477;-63
2023/04/20 03:26:19;;;;;;;2.60;2.40;;;9.50;99.90;;;;;;6278798;28;20477;-63
2023/04/20 03:29:22;;;;;;;1.97;1.77;;;9.50;99.90;;;;;;6278227;28;20474;-63
2023/04/20 03:32:26;;;;;;;1.43;1.33;;;9.50;99.90;;;;;;6278026;28;20474;-63
2023/04/20 03:35:29;;;;;;;2.10;2.00;;;9.50;99.90;;;;;;6277711;28;20549;-63
2023/04/20 03:38:33;;;;;;;2.20;2.00;;;9.60;99.90;;;;;;6278143;28;20810;-63
2023/04/20 03:41:37;;;;;;;1.93;1.73;;;9.60;99.90;;;;;;6278229;28;20482;-63
2023/04/20 03:44:40;;;;;;;1.93;1.80;;;9.60;99.90;;;;;;6277803;28;20497;-62
2023/04/20 03:47:43;;;;;;;2.00;1.80;;;9.60;99.90;;;;;;6277545;28;20488;-62
2023/04/20 03:50:46;;;;;;;2.43;2.23;;;9.60;99.90;;;;;;6277443;28;21259;-62
2023/04/20 03:53:50;;;;;;;2.30;2.00;;;9.60;99.90;;;;;;6277466;28;20473;-62
2023/04/20 03:56:55;;;;;;;2.40;2.20;;;9.70;99.90;;;;;;6277748;28;20478;-63
2023/04/20 03:59:58;;;;;;;2.90;2.70;;;9.70;99.90;;;;;;6277349;28;20470;-63
2023/04/20 04:03:01;;;;;;;2.50;2.30;;;9.70;99.90;;;;;;6277575;28;20473;-63
2023/04/20 04:06:05;;;;;;;2.57;2.37;;;9.70;99.90;;;;;;6277461;28;20477;-63
2023/04/20 04:09:09;;;;;;;3.07;2.87;;;9.60;99.90;;;;;;6277315;28;20470;-64
2023/04/20 04:12:13;;;;;;;3.33;3.03;;;9.60;99.90;;;;;;6267749;28;20478;-64
2023/04/20 04:15:18;;;;;;;2.73;2.53;;;9.60;99.90;;;;;;6276964;28;20490;-64
2023/04/20 04:18:21;;;;;;;3.17;2.87;;;9.60;99.90;;;;;;6276177;28;20865;-64
2023/04/20 04:21:24;;;;;;;2.97;2.67;;;9.60;99.90;;;;;;6276991;28;20469;-64
2023/04/20 04:24:28;;;;;;;2.30;2.20;;;9.60;99.90;;;;;;6277120;28;20855;-63
2023/04/20 04:27:33;;;;;;;3.10;2.20;;;9.60;99.90;;;;;;6276685;28;20968;-64
2023/04/20 04:30:36;;;;;;;4.27;3.20;;;9.60;99.90;;;;;;6252097;28;20455;-63
2023/04/20 04:33:39;;;;;;;3.27;3.00;;;9.60;99.90;;;;;;6251832;28;20957;-63
2023/04/20 04:36:43;;;;;;;3.03;2.83;;;9.60;99.90;;;;;;6252127;28;20483;-63
2023/04/20 04:39:46;;;;;;;3.70;3.30;;;9.70;99.90;;;;;;6251981;28;20438;-63
2023/04/20 04:42:51;;;;;;;3.30;3.00;;;9.70;99.90;;;;;;6252073;28;20899;-63
2023/04/20 04:45:54;;;;;;;4.57;2.43;;;9.80;99.90;;;;;;6252147;28;20455;-63
2023/04/20 04:48:59;;;;;;;2.70;2.50;;;9.80;99.90;;;;;;6251928;28;20469;-63
2023/04/20 04:52:03;;;;;;;3.07;2.87;;;9.80;99.90;;;;;;6251718;28;20553;-62
2023/04/20 04:55:08;;;;;;;2.83;2.63;;;9.80;99.90;;;;;;6251261;28;20466;-62
2023/04/20 04:58:13;;;;;;;2.60;2.40;;;9.80;99.90;;;;;;6251182;28;20479;-62
2023/04/20 05:01:16;;;;;;;2.97;2.67;;;9.90;99.90;;;;;;6250992;28;20463;-64
2023/04/20 05:04:20;;;;;;;3.00;2.70;;;9.90;99.90;;;;;;6251300;28;20471;-63
2023/04/20 05:07:23;;;;;;;2.47;2.30;;;9.90;99.90;;;;;;6251393;28;20586;-63
2023/04/20 05:10:27;;;;;;;6.80;3.17;;;9.90;99.90;;;;;;6251321;28;20821;-64
2023/04/20 05:13:31;;;;;;;3.07;2.77;;;9.90;99.90;;;;;;6250891;28;20479;-64
2023/04/20 05:16:34;;;;;;;3.23;2.80;;;10.00;99.90;;;;;;6251303;28;20463;-64
2023/04/20 05:19:40;;;;;;;3.43;3.13;;;10.00;99.90;;;;;;6251695;28;20471;-63
2023/04/20 05:22:44;;;;;;;2.43;2.23;;;10.10;99.90;;;;;;6251232;28;20811;-63
2023/04/20 05:25:47;;;;;;;3.50;2.50;;;10.20;99.90;;;;;;6251009;28;20483;-63
2023/04/20 05:28:52;;;;;;;3.50;2.60;;;10.20;99.90;;;;;;6250717;28;20478;-64
2023/04/20 05:31:55;;;;;;;2.43;2.30;;;10.30;99.90;;;;;;6250621;28;20489;-64
2023/04/20 05:34:59;;;;;;;2.97;2.70;;;10.40;99.90;;;;;;6250999;28;20613;-64
2023/04/20 05:38:05;;;;;;;2.80;2.57;;;10.50;99.90;;;;;;6254081;28;20463;-64
2023/04/20 05:41:08;;;;;;;4.67;2.70;;;10.60;99.90;;;;;;6261343;28;20466;-64
2023/04/20 05:44:12;;;;;;;3.70;2.60;;;10.60;99.90;;;;;;6254772;28;20475;-63
2023/04/20 05:47:15;;;;;;;3.77;3.03;;;10.70;99.90;;;;;;6251411;28;20474;-64
2023/04/20 05:50:19;;;;;;;2.97;2.77;;;10.80;99.90;;;;;;6250340;28;20482;-63
2023/04/20 05:53:22;;;;;;;4.03;3.30;;;10.90;99.90;;;;;;6250144;28;20471;-63
2023/04/20 05:56:25;;;;;;;3.27;2.93;;;11.00;99.90;;;;;;6245619;28;20479;-63
2023/04/20 05:59:30;;;;;;;4.40;2.57;;;11.00;99.90;;;;;;6244438;28;20471;-63
2023/04/20 06:02:34;;;;;;;2.80;2.60;;;11.20;99.90;;;;;;6241102;28;20482;-62
2023/04/20 06:05:37;;;;;;;2.87;2.37;;;11.30;99.90;;;;;;6228075;28;20488;-63
2023/04/20 06:08:41;;;;;;;2.60;2.40;;;11.60;99.90;;;;;;6225481;28;20468;-63
2023/04/20 06:11:44;;;;;;;3.43;2.90;;;11.90;99.90;;;;;;6225497;28;20483;-63
2023/04/20 06:14:48;;;;;;;2.37;2.17;;;12.40;99.90;;;;;;6225269;28;20479;-63
2023/04/20 06:17:51;;;;;;;2.73;2.53;;;12.80;99.90;;;;;;6235415;28;20507;-63
2023/04/20 06:20:55;;;;;;;3.60;2.57;;;13.50;99.90;;;;;;6237465;28;20475;-64
2023/04/20 06:23:59;;;;;;;3.03;2.43;;;13.70;98.90;;;;;;6227824;28;20570;-64
2023/04/20 06:27:02;;;;;;;2.20;2.00;;;14.00;98.80;;;;;;6224941;28;20468;-64
2023/04/20 06:30:08;;;;;;;2.40;2.20;;;14.30;98.40;;;;;;6225150;28;20475;-64
2023/04/20 06:33:15;;;;;;;4.80;2.93;;;14.60;97.50;;;;;;6225326;28;20468;-64
2023/04/20 06:36:19;;;;;;;3.70;2.70;;;15.20;96.30;;;;;;6225419;28;20526;-64
2023/04/20 06:39:22;;;;;;;2.53;2.33;;;15.50;95.30;;;;;;6225227;28;20488;-63
2023/04/20 06:42:25;;;;;;;2.63;2.30;;;16.10;94.70;;;;;;6232405;28;20845;-63
2023/04/20 06:45:29;;;;;;;3.43;2.03;;;16.90;93.30;;;;;;6239654;28;20486;-63
2023/04/20 06:48:35;;;;;;;2.60;2.40;;;17.60;91.40;;;;;;6239117;28;20478;-63
2023/04/20 06:51:39;;;;;;;2.57;2.37;;;18.30;88.90;;;;;;6240674;28;20457;-63
2023/04/20 06:54:43;;;;;;;3.27;2.97;;;18.80;85.90;;;;;;6233985;28;20463;-63
2023/04/20 06:57:46;;;;;;;4.70;2.80;;;19.10;82.80;;;;;;6253802;28;20949;-63
2023/04/20 07:00:50;;;;;;;3.00;2.80;;;19.50;81.00;;;;;;6254531;28;20218;-63
2023/04/20 07:03:53;;;;;;;3.00;2.80;;;20.40;78.20;;;;;;6253814;28;20220;-63
2023/04/20 07:06:57;;;;;;;2.93;2.50;;;21.50;72.40;;;;;;6254667;28;20285;-63
2023/04/20 07:10:00;;;;;;;2.10;1.90;;;22.40;66.30;;;;;;6254538;28;20224;-64
2023/04/20 07:13:03;;;;;;;5.30;3.20;;;23.20;61.40;;;;;;6253817;28;20227;-64
2023/04/20 07:16:10;;;;;;;3.90;3.10;;;23.40;57.50;;;;;;6249972;28;20243;-64
2023/04/20 07:19:13;;;;;;;4.47;3.30;;;24.50;55.80;;;;;;6253496;28;20224;-64
2023/04/20 07:22:16;;;;;;;3.47;2.80;;;26.10;51.50;;;;;;6253415;28;20236;-64
2023/04/20 07:25:19;;;;;;;4.93;3.03;;;27.50;46.00;;;;;;6253722;28;20239;-64
2023/04/20 07:28:22;;;;;;;3.60;2.77;;;28.00;41.70;;;;;;6253962;28;20228;-64
2023/04/20 07:31:27;;;;;;;3.23;2.40;;;27.80;40.90;;;;;;6245465;28;20236;-63
2023/04/20 07:34:30;;;;;;;2.80;2.40;;;28.00;40.10;;;;;;6229128;28;20703;-63
2023/04/20 07:37:33;;;;;;;4.17;2.23;;;28.20;38.40;;;;;;6229386;28;20228;-64
2023/04/20 07:40:37;;;;;;;2.97;2.63;;;27.90;37.80;;;;;;6234428;28;20350;-64
2023/04/20 07:43:40;;;;;;;2.30;2.10;;;28.90;36.40;;;;;;6236051;28;20235;-64
2023/04/20 07:46:44;;;;;;;5.20;2.80;;;29.90;33.20;;;;;;6246945;28;20232;-64
2023/04/20 07:49:47;;;;;;;7.17;3.70;;;29.90;31.70;;;;;;6253473;28;20234;-63
2023/04/20 07:52:51;;;;;;;4.27;3.97;;;30.40;31.90;;;;;;6253145;28;20701;-64
2023/04/20 07:55:54;;;;;;;3.90;3.60;;;30.60;30.00;;;;;;6253086;28;20232;-64
2023/04/20 07:58:57;;;;;;;7.67;3.40;;;29.90;29.60;;;;;;6252891;28;20238;-64
2023/04/20 08:02:03;;;;;;;3.97;3.27;;;29.30;30.00;;;;;;6253262;28;20245;-65
2023/04/20 08:05:08;;;;;;;3.47;3.17;;;29.70;29.60;;;;;;6253184;28;20649;-65
2023/04/20 08:08:12;;;;;;;3.00;2.72;;;31.40;28.80;;;;;;6249904;28;20230;-67
2023/04/20 08:11:15;;;;;;;3.40;3.10;;;33.10;27.20;;;;;;6250146;28;20225;-68
2023/04/20 08:14:18;;;;;;;3.90;3.47;;;32.90;25.50;;;;;;6235847;28;20244;-64
2023/04/20 08:17:24;;;;;;;4.25;2.75;;;33.50;25.40;;;;;;6251664;28;20223;-67
2023/04/20 08:20:30;;;;;;;3.05;2.85;;;34.60;25.80;;;;;;6249847;28;20262;-68
2023/04/20 08:23:39;;;;;;;4.32;3.03;;;32.90;24.90;;;;;;6253917;28;20246;-69
2023/04/20 08:26:43;;;;;;;3.27;3.07;;;30.40;26.40;;;;;;6252640;28;20219;-64
2023/04/20 08:29:46;;;;;;;3.70;3.40;;;28.20;28.40;;;;;;6252021;28;20679;-65
2023/04/20 08:32:50;;;;;;;4.33;3.83;;;26.40;30.40;;;;;;6251753;28;20234;-65
2023/04/20 08:35:54;;;;;;;3.37;3.13;;;25.00;32.70;;;;;;6251651;28;20278;-65
2023/04/20 08:39:06;;;;;;;3.90;3.60;;;24.00;34.40;;;;;;6251547;28;20262;-66
2023/04/20 08:42:10;;;;;;;3.43;2.97;;;22.90;35.70;;;;;;6251508;28;20244;-64
2023/04/20 08:45:13;;;;;;;4.13;3.80;;;22.10;37.40;;;;;;6251930;28;20235;-65
2023/04/20 08:48:20;;;;;;;4.50;3.37;;;21.40;38.90;;;;;;6251398;28;20247;-65
2023/04/20 08:51:24;;;;;;;6.07;3.97;;;20.60;40.70;;;;;;6251799;28;20551;-64
2023/04/20 08:54:27;;;;;;;4.30;3.90;;;19.80;42.20;;;;;;6251724;28;20251;-64
2023/04/20 08:57:30;;;;;;;3.97;3.67;;;19.20;43.20;;;;;;6250786;28;20232;-64
2023/04/20 09:00:33;;;;;;;4.10;3.70;;;18.50;45.00;;;;;;6251198;28;20521;-62
2023/04/20 09:03:39;;;;;;;3.10;2.90;;;18.20;45.90;;;;;;6250613;28;20486;-62
2023/04/20 09:06:44;;;;;;;4.93;3.43;;;18.20;46.30;;;;;;6251088;28;20220;-65
2023/04/20 09:09:56;;;;;;;4.90;4.20;;;18.40;46.90;;;;;;6251023;28;20204;-63
2023/04/20 09:13:00;;;;;;;4.93;3.53;;;18.70;47.00;;;;;;6251139;28;20473;-64
2023/04/20 09:16:13;;;;;;;3.70;3.33;;;19.30;46.70;;;;;;6250564;28;20266;-65
2023/04/20 09:19:21;;;;;;;3.30;3.03;;;20.00;45.00;;;;;;6226545;28;20308;-65
2023/04/20 09:22:30;;;;;;;3.87;3.57;;;20.50;44.20;;;;;;6228109;28;20236;-65
2023/04/20 09:25:33;;;;;;;4.67;4.20;;;20.90;42.90;;;;;;6250449;28;20699;-65
2023/04/20 09:28:38;;;;;;;3.50;3.20;;;20.90;42.40;;;;;;6250333;28;20567;-66
2023/04/20 09:31:42;;;;;;;4.53;4.17;;;20.90;42.10;;;;;;6250595;28;20228;-64
2023/04/20 09:34:46;;;;;;;4.03;3.63;;;20.80;42.60;;;;;;6250101;28;20673;-64
2023/04/20 09:37:49;;;;;;;4.03;3.73;;;20.60;43.10;;;;;;6250940;28;20243;-63
2023/04/20 09:40:53;;;;;;;5.53;4.63;;;19.90;43.80;;;;;;6250105;28;20675;-65
2023/04/20 09:43:57;;;;;;;4.43;4.10;;;19.60;44.20;;;;;;6240766;28;20700;-64
2023/04/20 09:47:00;;;;;;;4.47;3.40;;;19.00;45.00;;;;;;6225365;28;20681;-65
2023/04/20 09:50:06;;;;;;;5.03;3.80;;;19.00;45.80;;;;;;6225593;28;20560;-64
2023/04/20 09:53:31;;;;;;;4.50;3.43;;;19.30;46.40;;;;;;6225297;28;20244;-66
2023/04/20 09:56:35;;;;;;;3.77;3.47;;;19.70;45.80;;;;;;6225108;28;20224;-64
2023/04/20 09:59:39;;;;;;;7.00;4.10;;;19.80;44.80;;;;;;6225218;28;20229;-65
2023/04/20 10:02:47;;;;;;;4.07;3.40;;;19.90;44.90;;;;;;6225209;28;20236;-62
2023/04/20 10:05:54;;;;;;;3.97;3.63;;;19.90;44.90;;;;;;6224931;28;20375;-63
2023/04/20 10:08:58;;;;;;;4.70;3.97;;;20.30;45.20;;;;;;6225252;28;20220;-63
2023/04/20 10:12:09;;;;;;;4.03;3.73;;;20.40;44.90;;;;;;6245538;28;20370;-62
2023/04/20 10:15:12;;;;;;;3.73;3.33;;;20.90;44.50;;;;;;6248916;28;20248;-62
2023/04/20 10:18:17;;;;;;;5.10;3.97;;;21.00;44.20;;;;;;6249878;28;20240;-62
2023/04/20 10:21:22;;;;;;;5.83;3.97;;;21.20;43.60;;;;;;6250033;28;20242;-63
2023/04/20 10:24:29;;;;;;;4.37;3.97;;;21.40;43.00;;;;;;6240444;28;20240;-63
2023/04/20 10:27:32;;;;;;;4.83;3.57;;;21.60;42.90;;;;;;6249143;28;20247;-63
2023/04/20 10:30:36;;;;;;;5.30;4.40;;;21.50;42.60;;;;;;6249651;28;20274;-62
2023/04/20 10:33:52;;;;;;;4.13;3.83;;;21.00;42.70;;;;;;6249332;28;20246;-64
2023/04/20 10:37:07;;;;;;;4.33;3.93;;;20.80;44.40;;;;;;6226162;28;20228;-62
2023/04/20 10:40:12;;;;;;;4.40;4.00;;;21.00;43.70;;;;;;6224743;28;20236;-62
2023/04/20 10:43:20;;;;;;;4.87;4.47;;;20.50;44.00;;;;;;6224857;28;20368;-61
2023/04/20 10:46:25;;;;;;;4.60;4.20;;;20.70;44.70;;;;;;6225007;28;20244;-61
2023/04/20 10:49:30;;;;;;;3.90;3.60;;;20.70;44.20;;;;;;6225344;28;20233;-61
2023/04/20 10:52:36;;;;;;;5.67;4.17;;;20.30;44.60;;;;;;6228731;28;20557;-63
2023/04/20 10:55:40;;;;;;;4.33;3.93;;;20.30;45.00;;;;;;6236721;28;20220;-62
2023/04/20 10:58:43;;;;;;;4.13;3.83;;;20.20;45.60;;;;;;6234683;28;20713;-63
2023/04/20 11:01:47;;;;;;;4.43;4.03;;;20.40;45.30;;;;;;6233755;28;20660;-62
2023/04/20 11:04:51;;;;;;;4.43;4.03;;;20.50;45.40;;;;;;6227811;28;20224;-63
2023/04/20 11:07:58;;;;;;;4.40;4.00;;;20.70;45.90;;;;;;6224336;28;20243;-65
2023/04/20 11:11:01;;;;;;;4.77;4.37;;;20.90;44.90;;;;;;6235878;28;20239;-63
2023/04/20 11:14:08;;;;;;;4.80;4.40;;;21.10;44.90;;;;;;6236289;28;20679;-63
2023/04/20 11:17:11;;;;;;;3.97;3.67;;;21.20;44.60;;;;;;6247930;28;20224;-63
2023/04/20 11:20:17;;;;;;;4.10;3.73;;;20.70;44.90;;;;;;6237397;28;20225;-63
2023/04/20 11:23:23;;;;;;;4.40;4.00;;;20.80;45.20;;;;;;6240276;28;20292;-65
2023/04/20 11:26:35;;;;;;;4.33;3.93;;;20.80;44.70;;;;;;6239384;28;20241;-63
2023/04/20 11:29:39;;;;;;;4.43;4.03;;;21.00;45.10;;;;;;6228956;28;20244;-63
2023/04/20 11:32:42;;;;;;;3.90;3.50;;;21.00;45.30;;;;;;6228780;28;20225;-63
2023/04/20 11:35:46;;;;;;;4.57;4.17;;;21.10;44.90;;;;;;6228534;28;20243;-63
2023/04/20 11:38:51;;;;;;;4.60;4.20;;;20.90;45.00;;;;;;6228515;28;20244;-63
2023/04/20 11:41:55;;;;;;;4.20;3.90;;;20.70;45.10;;;;;;6228643;28;20244;-64
2023/04/20 11:44:59;;;;;;;4.70;4.23;;;20.40;45.70;;;;;;6228520;28;20237;-63
2023/04/20 11:48:03;;;;;;;4.73;4.23;;;20.00;46.20;;;;;;6228528;28;20228;-63
2023/04/20 11:51:06;;;;;;;5.23;4.10;;;20.10;46.60;;;;;;6228149;28;20351;-64
2023/04/20 11:54:11;;;;;;;6.67;5.90;;;20.40;47.10;;;;;;6227979;28;20243;-62
2023/04/20 11:57:14;;;;;;;4.20;3.80;;;20.70;45.60;;;;;;6237600;28;20228;-65
2023/04/20 12:00:19;;;;;;;5.17;4.17;;;20.90;45.40;;;;;;6252499;28;20236;-64
2023/04/20 12:03:22;;;;;;;4.80;4.37;;;20.80;45.20;;;;;;6252353;28;20563;-66
2023/04/20 12:06:26;;;;;;;4.70;4.17;;;20.80;45.60;;;;;;6252622;28;20751;-65
2023/04/20 12:09:34;;;;;;;5.20;4.07;;;20.80;45.20;;;;;;6251685;28;20259;-65
2023/04/20 12:12:40;;;;;;;4.43;3.87;;;20.90;45.70;;;;;;6227721;28;20235;-64
2023/04/20 12:15:44;;;;;;;4.87;4.33;;;21.00;45.80;;;;;;6251984;28;20263;-63
2023/04/20 12:18:47;;;;;;;5.03;4.53;;;21.40;45.80;;;;;;6272943;28;20251;-63
2023/04/20 12:21:50;;;;;;;4.43;4.13;;;21.70;44.90;;;;;;6276558;28;20605;-64
2023/04/20 12:24:54;;;;;;;5.80;4.80;;;21.70;44.70;;;;;;6276468;28;20242;-64
2023/04/20 12:27:58;;;;;;;4.17;3.87;;;21.90;44.50;;;;;;6267796;28;20204;-64
2023/04/20 12:31:01;;;;;;;5.17;4.30;;;22.00;44.40;;;;;;6253570;28;20232;-64
2023/04/20 12:34:05;;;;;;;4.23;3.93;;;22.10;44.60;;;;;;6251550;28;20311;-64
2023/04/20 12:37:08;;;;;;;4.50;4.13;;;22.50;43.90;;;;;;6250636;28;20315;-63
2023/04/20 12:40:13;;;;;;;4.13;3.83;;;22.80;43.30;;;;;;6251316;28;20232;-64
2023/04/20 12:43:16;;;;;;;3.70;3.40;;;23.00;42.90;;;;;;6262876;28;20231;-64
2023/04/20 12:46:19;;;;;;;4.67;4.20;;;23.10;43.40;;;;;;6268084;28;20219;-64
2023/04/20 12:49:23;;;;;;;4.40;4.10;;;23.10;43.90;;;;;;6255216;28;20228;-65
2023/04/20 12:52:26;;;;;;;6.77;4.80;;;22.60;43.20;;;;;;6253766;28;20243;-65
2023/04/20 12:55:32;;;;;;;6.20;4.00;;;22.40;43.20;;;;;;6252904;28;20243;-64
2023/04/20 12:58:35;;;;;;;4.77;4.37;;;22.30;43.90;;;;;;6268299;28;20236;-69
2023/04/20 13:01:41;;;;;;;5.97;4.20;;;21.60;45.60;;;;;;6275805;28;20253;-66
2023/04/20 13:04:44;;;;;;;5.00;4.50;;;20.80;46.30;;;;;;6253604;28;20530;-66
2023/04/20 13:07:49;;;;;;;4.60;4.20;;;20.60;46.60;;;;;;6250966;28;20293;-67
2023/04/20 13:10:53;;;;;;;4.20;3.80;;;20.60;47.70;;;;;;6261110;28;20231;-67
2023/04/20 13:13:57;;;;;;;4.20;3.90;;;20.50;48.00;;;;;;6275212;28;20247;-66
2023/04/20 13:17:00;;;;;;;4.67;4.33;;;20.20;48.20;;;;;;6275401;28;20219;-66
2023/04/20 13:20:05;;;;;;;3.90;3.60;;;19.70;48.50;;;;;;6275823;28;20235;-66
2023/04/20 13:23:11;;;;;;;5.50;5.00;;;19.60;48.80;;;;;;6275507;28;20561;-66
2023/04/20 13:26:15;;;;;;;4.10;3.80;;;19.70;49.00;;;;;;6275490;28;20254;-67
2023/04/20 13:29:18;;;;;;;4.30;3.90;;;20.00;49.20;;;;;;6275312;28;20563;-68
2023/04/20 13:32:22;;;;;;;6.87;4.40;;;19.70;49.00;;;;;;6276546;28;20254;-68
2023/04/20 13:35:25;;;;;;;4.37;3.97;;;19.80;49.30;;;;;;6267041;28;20255;-66
2023/04/20 13:38:29;;;;;;;5.13;4.73;;;20.00;49.50;;;;;;6276700;28;20349;-66
2023/04/20 13:41:33;;;;;;;4.90;4.50;;;19.90;49.50;;;;;;6277602;28;20246;-65
2023/04/20 13:44:36;;;;;;;5.73;4.47;;;19.60;50.30;;;;;;6275032;28;20232;-66
2023/04/20 13:47:40;;;;;;;4.70;4.30;;;19.00;50.70;;;;;;6274465;28;20242;-66
2023/04/20 13:50:43;;;;;;;6.30;4.87;;;18.90;50.90;;;;;;6274558;28;20228;-67
2023/04/20 13:53:47;;;;;;;5.47;4.50;;;18.80;51.80;;;;;;6274349;28;20318;-66
2023/04/20 13:56:52;;;;;;;5.47;4.00;;;18.60;52.40;;;;;;6274601;28;20232;-66
2023/04/20 13:59:55;;;;;;;5.67;4.20;;;18.20;52.90;;;;;;6274374;28;20231;-66
2023/04/20 14:02:58;;;;;;;4.93;4.50;;;17.90;53.70;;;;;;6274380;28;20814;-66
2023/04/20 14:06:02;;;;;;;6.70;5.10;;;17.60;54.70;;;;;;6274690;28;20488;-66
2023/04/20 14:09:06;;;;;;;5.90;3.90;;;17.30;55.90;;;;;;6274067;28;20473;-65
2023/04/20 14:12:10;;;;;;;5.70;4.30;;;17.30;56.10;;;;;;6274376;28;20968;-66
2023/04/20 14:15:14;;;;;;;7.70;4.97;;;17.40;56.20;;;;;;6273986;28;20486;-65
2023/04/20 14:18:17;;;;;;;4.23;3.93;;;17.40;56.30;;;;;;6273867;28;20474;-65
2023/04/20 14:21:20;;;;;;;6.77;4.83;;;17.40;56.50;;;;;;6274015;28;20477;-65
2023/04/20 14:24:23;;;;;;;6.80;4.60;;;17.50;56.70;;;;;;6273801;28;20478;-65
2023/04/20 14:27:28;;;;;;;5.00;4.60;;;17.60;56.40;;;;;;6256167;28;20478;-65
2023/04/20 14:30:31;;;;;;;5.97;4.20;;;17.70;56.70;;;;;;6273633;28;20895;-65
2023/04/20 14:33:34;;;;;;;4.50;4.10;;;17.90;56.90;;;;;;6273739;28;20478;-65
2023/04/20 14:36:37;;;;;;;4.53;4.13;;;17.90;56.60;;;;;;6274215;28;20980;-65
2023/04/20 14:39:40;;;;;;;4.20;3.80;;;18.00;56.70;;;;;;6273667;28;20488;-65
2023/04/20 14:42:45;;;;;;;4.60;4.13;;;18.20;56.80;;;;;;6273883;28;20468;-64
2023/04/20 14:45:49;;;;;;;5.10;4.00;;;18.30;55.90;;;;;;6274398;28;20466;-66
2023/04/20 14:48:53;;;;;;;4.80;4.40;;;18.50;55.50;;;;;;6274366;28;20520;-66
2023/04/20 14:51:56;;;;;;;3.80;3.50;;;18.50;55.10;;;;;;6273850;28;20538;-66
2023/04/20 14:54:59;;;;;;;4.90;4.37;;;18.60;55.00;;;;;;6273678;28;20541;-66
2023/04/20 14:58:04;;;;;;;5.87;4.00;;;18.70;54.60;;;;;;6273443;28;20207;-67
2023/04/20 15:01:10;;;;;;;9.40;8.60;;;18.70;54.50;;;;;;6275823;28;20273;-67
2023/04/20 15:04:13;;;;;;;19.60;17.70;;;18.60;54.50;;;;;;6278903;28;20558;-67
2023/04/20 15:07:17;;;;;;;8.23;6.53;;;18.50;54.80;;;;;;6278786;28;20223;-67
2023/04/20 15:10:21;;;;;;;5.53;4.63;;;18.50;55.10;;;;;;6278294;28;20227;-67
2023/04/20 15:13:26;;;;;;;8.37;7.10;;;18.50;55.00;;;;;;6278345;28;20247;-68
2023/04/20 15:16:29;;;;;;;6.93;4.30;;;18.50;55.40;;;;;;6278188;28;20474;-66
2023/04/20 15:19:32;;;;;;;4.40;4.00;;;18.30;55.00;;;;;;6278094;28;20477;-66
2023/04/20 15:22:36;;;;;;;5.00;4.60;;;18.10;55.50;;;;;;6275434;28;20467;-67
2023/04/20 15:25:39;;;;;;;5.13;4.77;;;18.10;55.90;;;;;;6266720;28;20977;-67
2023/04/20 15:28:44;;;;;;;5.00;4.60;;;18.00;55.90;;;;;;6266298;28;20767;-67
2023/04/20 15:31:47;;;;;;;5.70;5.20;;;17.80;55.90;;;;;;6269154;28;20478;-67
2023/04/20 15:34:50;;;;;;;4.60;4.30;;;17.80;56.20;;;;;;6266320;28;20483;-67
2023/04/20 15:37:54;;;;;;;4.67;4.27;;;17.90;56.30;;;;;;6263983;28;20471;-67
2023/04/20 15:40:58;;;;;;;5.63;5.13;;;17.90;55.70;;;;;;6253332;28;20482;-67
2023/04/20 15:44:03;;;;;;;4.83;4.43;;;17.90;56.00;;;;;;6253155;28;20471;-66
2023/04/20 15:47:06;;;;;;;4.77;4.37;;;17.70;56.40;;;;;;6252908;28;20549;-67
2023/04/20 15:50:12;;;;;;;3.50;3.20;;;17.60;56.00;;;;;;6252799;28;20835;-66
2023/04/20 15:53:15;;;;;;;4.30;3.93;;;17.60;56.30;;;;;;6252704;28;20486;-67
2023/04/20 15:56:21;;;;;;;4.70;4.10;;;17.50;56.20;;;;;;6252777;28;20582;-65
2023/04/20 15:59:26;;;;;;;6.63;4.67;;;17.50;57.00;;;;;;6252667;28;20541;-66
2023/04/20 16:02:29;;;;;;;4.27;3.87;;;17.40;57.10;;;;;;6252625;28;20475;-65